Time;durP1;ratioP1;P1;durP2;ratioP2;P2;SDS_P1;SDS_P2;PMS_P1;PMS_P2;Temp;Humidity;BMP_temperature;BMP_pressure;BME280_temperature;BME280_humidity;BME280_pressure;Samples;Min_cycle;Max_cycle;Signal;HPM_P1;HPM_P2
2023/11/18 00:00:58;;;;;;;;;;;;;;;4.35;100.00;101412.19;5084768;28;19965;-66
2023/11/18 00:03:25;;;;;;;;;;;;;;;4.39;100.00;101413.84;5072366;28;19924;-64
2023/11/18 00:05:52;;;;;;;;;;;;;;;4.33;100.00;101419.19;5061777;28;19964;-64
2023/11/18 00:08:19;;;;;;;;;;;;;;;4.34;100.00;101426.09;5072380;28;19982;-64
2023/11/18 00:10:47;;;;;;;;;;;;;;;4.37;100.00;101425.16;5075070;28;19987;-66
2023/11/18 00:13:15;;;;;;;;;;;;;;;4.39;100.00;101429.47;5070973;28;19956;-66
2023/11/18 00:15:42;;;;;;;;;;;;;;;4.40;100.00;101431.19;5078370;28;20011;-64
2023/11/18 00:18:09;;;;;;;;;;;;;;;4.36;100.00;101426.91;5064411;28;19985;-64
2023/11/18 00:20:36;;;;;;;;;;;;;;;4.37;100.00;101431.28;5070791;28;19932;-63
2023/11/18 00:23:06;;;;;;;;;;;;;;;4.41;100.00;101432.91;5069617;28;19967;-64
2023/11/18 00:25:36;;;;;;;;;;;;;;;4.39;100.00;101436.44;5073267;28;19978;-65
2023/11/18 00:28:03;;;;;;;;;;;;;;;4.42;100.00;101439.00;5072290;28;19974;-64
2023/11/18 00:30:30;;;;;;;;;;;;;;;4.49;100.00;101437.97;5071419;28;19929;-64
2023/11/18 00:32:57;;;;;;;;;;;;;;;4.42;100.00;101447.66;5074287;28;20332;-63
2023/11/18 00:35:24;;;;;;;;;;;;;;;4.35;100.00;101458.25;5068205;28;20012;-65
2023/11/18 00:37:51;;;;;;;;;;;;;;;4.41;100.00;101458.09;5075792;28;20309;-65
2023/11/18 00:40:18;;;;;;;;;;;;;;;4.34;100.00;101453.94;5076598;28;20495;-64
2023/11/18 00:42:45;;;;;;;;;;;;;;;4.30;100.00;101455.72;5071966;28;19971;-62
2023/11/18 00:45:12;;;;;;;;;;;;;;;4.34;100.00;101456.53;5067340;28;20277;-63
2023/11/18 00:47:41;;;;;;;;;;;;;;;4.36;100.00;101462.56;5067146;28;19925;-61
2023/11/18 00:50:08;;;;;;;;;;;;;;;4.29;100.00;101467.91;5064591;28;19952;-63
2023/11/18 00:52:38;;;;;;;;;;;;;;;4.29;100.00;101472.25;5072443;28;20333;-64
2023/11/18 00:55:10;;;;;;;;;;;;;;;4.31;100.00;101475.69;5069641;28;19969;-65
2023/11/18 00:57:39;;;;;;;;;;;;;;;4.25;100.00;101478.41;5060109;28;19936;-63
2023/11/18 01:00:13;;;;;;;;;;;;;;;4.22;100.00;101484.53;5084157;28;19978;-64
2023/11/18 01:02:41;;;;;;;;;;;;;;;4.18;100.00;101482.03;5074258;28;20001;-64
2023/11/18 01:05:10;;;;;;;;;;;;;;;4.14;100.00;101488.19;5070244;28;20045;-63
2023/11/18 01:07:38;;;;;;;;;;;;;;;4.18;100.00;101492.44;5074313;28;20354;-62
2023/11/18 01:10:06;;;;;;;;;;;;;;;4.21;100.00;101495.00;5070494;28;19947;-64
2023/11/18 01:12:33;;;;;;;;;;;;;;;4.22;100.00;101504.53;5069612;28;20043;-63
2023/11/18 01:15:00;;;;;;;;;;;;;;;4.26;100.00;101501.84;5070368;28;20386;-64
2023/11/18 01:17:27;;;;;;;;;;;;;;;4.24;100.00;101508.00;5066748;28;19924;-64
2023/11/18 01:19:54;;;;;;;;;;;;;;;4.26;100.00;101507.06;5068148;28;20372;-64
2023/11/18 01:22:21;;;;;;;;;;;;;;;4.29;100.00;101511.38;5070450;28;20056;-63
2023/11/18 01:24:50;;;;;;;;;;;;;;;4.27;100.00;101510.50;5068311;28;19959;-63
2023/11/18 01:27:19;;;;;;;;;;;;;;;4.31;100.00;101517.38;5067585;28;20499;-62
2023/11/18 01:29:49;;;;;;;;;;;;;;;4.28;100.00;101515.72;5072690;28;20507;-63
2023/11/18 01:32:17;;;;;;;;;;;;;;;4.31;100.00;101515.63;5064633;28;19924;-64
2023/11/18 01:34:49;;;;;;;;;;;;;;;4.35;100.00;101520.81;5064270;28;20014;-63
2023/11/18 01:37:16;;;;;;;;;;;;;;;4.37;100.00;101511.19;5070049;28;20004;-64
2023/11/18 01:39:43;;;;;;;;;;;;;;;4.37;100.00;101512.09;5073234;28;19928;-64
2023/11/18 01:42:11;;;;;;;;;;;;;;;4.38;100.00;101508.59;5073669;28;19928;-63
2023/11/18 01:44:38;;;;;;;;;;;;;;;4.43;100.00;101514.56;5076036;28;20013;-63
2023/11/18 01:47:05;;;;;;;;;;;;;;;4.35;100.00;101518.19;5074529;28;19968;-63
2023/11/18 01:49:36;;;;;;;;;;;;;;;4.33;100.00;101510.41;5072431;28;20344;-63
2023/11/18 01:52:04;;;;;;;;;;;;;;;4.32;100.00;101514.78;5079285;28;20371;-64
2023/11/18 01:54:32;;;;;;;;;;;;;;;4.34;100.00;101516.50;5070964;28;20516;-63
2023/11/18 01:57:00;;;;;;;;;;;;;;;4.34;100.00;101516.50;5070949;28;19964;-63
2023/11/18 01:59:29;;;;;;;;;;;;;;;4.37;100.00;101519.00;5072133;28;21183;-63
2023/11/18 02:01:59;;;;;;;;;;;;;;;4.22;100.00;101528.84;5071202;28;19924;-65
2023/11/18 02:04:27;;;;;;;;;;;;;;;4.25;100.00;101522.72;5066046;28;19960;-64
2023/11/18 02:06:56;;;;;;;;;;;;;;;4.30;100.00;101533.94;5073230;28;20336;-63
2023/11/18 02:09:32;;;;;;;;;;;;;;;4.25;100.00;101535.75;5078120;28;19925;-63
2023/11/18 02:12:20;;;;;;;;;;;;;;;4.26;100.00;101533.13;5053302;28;19924;-64
2023/11/18 02:14:47;;;;;;;;;;;;;;;4.22;100.00;101539.28;5078810;28;19959;-64
2023/11/18 02:17:14;;;;;;;;;;;;;;;4.22;100.00;101539.28;5079933;28;20035;-65
2023/11/18 02:19:41;;;;;;;;;;;;;;;4.28;100.00;101540.94;5072051;28;19970;-64
2023/11/18 02:22:09;;;;;;;;;;;;;;;4.33;100.00;101539.09;5071816;28;19999;-63
2023/11/18 02:24:37;;;;;;;;;;;;;;;4.32;100.00;101546.06;5078177;28;19958;-64
2023/11/18 02:27:07;;;;;;;;;;;;;;;4.35;100.00;101545.13;5079413;28;20023;-64
2023/11/18 02:29:37;;;;;;;;;;;;;;;4.30;100.00;101544.34;5079006;28;20404;-63
2023/11/18 02:32:15;;;;;;;;;;;;;;;4.29;100.00;101546.09;5080007;28;20509;-62
2023/11/18 02:34:48;;;;;;;;;;;;;;;4.24;100.00;101550.53;5075632;28;20011;-63
2023/11/18 02:37:16;;;;;;;;;;;;;;;4.30;100.00;101549.56;5071982;28;19947;-63
2023/11/18 02:39:43;;;;;;;;;;;;;;;4.29;100.00;101547.84;5078313;28;19936;-64
2023/11/18 02:42:12;;;;;;;;;;;;;;;4.24;100.00;101566.19;5078792;28;19971;-60
2023/11/18 02:44:39;;;;;;;;;;;;;;;4.29;100.00;101551.31;5072531;28;19951;-64
2023/11/18 02:47:06;;;;;;;;;;;;;;;4.30;100.00;101554.78;5068084;28;20019;-63
2023/11/18 02:49:36;;;;;;;;;;;;;;;4.34;100.00;101553.84;5078318;28;20375;-63
2023/11/18 02:52:03;;;;;;;;;;;;;;;4.41;100.00;101555.44;5072264;28;20329;-63
2023/11/18 02:54:30;;;;;;;;;;;;;;;4.41;100.00;101546.75;5077421;28;20331;-64
2023/11/18 02:56:58;;;;;;;;;;;;;;;4.30;100.00;101549.56;5066032;28;20512;-63
2023/11/18 02:59:26;;;;;;;;;;;;;;;4.29;100.00;101553.91;5058202;28;19978;-63
2023/11/18 03:01:54;;;;;;;;;;;;;;;4.25;100.00;101548.78;5074649;28;19948;-63
2023/11/18 03:04:23;;;;;;;;;;;;;;;4.29;100.00;101559.13;5067957;28;19932;-63
2023/11/18 03:06:50;;;;;;;;;;;;;;;4.31;100.00;101554.75;5064112;28;20024;-63
2023/11/18 03:09:18;;;;;;;;;;;;;;;4.32;100.00;101553.00;5077264;28;20019;-63
2023/11/18 03:11:45;;;;;;;;;;;;;;;4.36;100.00;101549.44;5078769;28;19934;-63
2023/11/18 03:14:12;;;;;;;;;;;;;;;4.36;100.00;101548.59;5068594;28;20395;-63
2023/11/18 03:16:39;;;;;;;;;;;;;;;4.42;100.00;101543.28;5071286;28;20384;-64
2023/11/18 03:19:08;;;;;;;;;;;;;;;4.39;100.00;101548.53;5080617;28;20365;-63
2023/11/18 03:21:35;;;;;;;;;;;;;;;4.37;100.00;101545.09;5075415;28;19928;-63
2023/11/18 03:24:02;;;;;;;;;;;;;;;4.35;100.00;101552.94;5073893;28;19946;-64
2023/11/18 03:26:31;;;;;;;;;;;;;;;4.31;100.00;101552.13;5100071;22;19928;-60
2023/11/18 03:28:58;;;;;;;;;;;;;;;4.35;100.00;101558.16;5090860;28;20015;-57
2023/11/18 03:31:26;;;;;;;;;;;;;;;4.39;100.00;101553.75;5087528;28;20333;-58
2023/11/18 03:33:53;;;;;;;;;;;;;;;4.39;100.00;101565.03;5092554;28;20400;-59
2023/11/18 03:36:20;;;;;;;;;;;;;;;4.39;100.00;101561.56;5074690;28;19924;-58
2023/11/18 03:38:49;;;;;;;;;;;;;;;4.42;100.00;101558.91;5079635;28;20009;-61
2023/11/18 03:41:16;;;;;;;;;;;;;;;4.39;100.00;101558.97;5079154;28;19967;-60
2023/11/18 03:43:43;;;;;;;;;;;;;;;4.34;100.00;101563.41;5084237;28;20242;-60
2023/11/18 03:46:10;;;;;;;;;;;;;;;4.40;100.00;101566.75;5078008;28;20011;-58
2023/11/18 03:48:37;;;;;;;;;;;;;;;4.39;100.00;101558.97;5075072;28;19944;-59
2023/11/18 03:51:04;;;;;;;;;;;;;;;4.40;100.00;101571.09;5069003;28;19982;-55
2023/11/18 03:53:33;;;;;;;;;;;;;;;4.41;100.00;101565.00;5070039;28;19924;-59
2023/11/18 03:56:02;;;;;;;;;;;;;;;4.43;100.00;101568.47;5075183;28;20299;-57
2023/11/18 03:58:29;;;;;;;;;;;;;;;4.40;100.00;101560.69;5066816;28;19968;-61
2023/11/18 04:00:57;;;;;;;;;;;;;;;4.42;100.00;101562.38;5074109;28;20009;-59
2023/11/18 04:03:24;;;;;;;;;;;;;;;4.43;100.00;101560.63;5063355;28;20401;-59
2023/11/18 04:05:51;;;;;;;;;;;;;;;4.41;100.00;101563.25;5070376;28;20130;-61
2023/11/18 04:08:18;;;;;;;;;;;;;;;4.39;100.00;101572.00;5072298;28;19990;-61
2023/11/18 04:10:45;;;;;;;;;;;;;;;4.40;100.00;101573.72;5078452;28;19956;-57
2023/11/18 04:13:12;;;;;;;;;;;;;;;4.41;100.00;101576.28;5079649;28;19974;-61
2023/11/18 04:15:39;;;;;;;;;;;;;;;4.41;100.00;101575.44;5072772;28;19956;-59
2023/11/18 04:18:06;;;;;;;;;;;;;;;4.45;100.00;101577.94;5070482;28;19928;-60
2023/11/18 04:20:33;;;;;;;;;;;;;;;4.48;100.00;101588.34;5063355;28;20578;-60
2023/11/18 04:23:00;;;;;;;;;;;;;;;4.48;100.00;101583.13;5070958;28;19924;-61
2023/11/18 04:25:27;;;;;;;;;;;;;;;4.49;100.00;101587.44;5073052;28;19968;-62
2023/11/18 04:27:54;;;;;;;;;;;;;;;4.50;100.00;101581.38;5082455;28;19954;-59
2023/11/18 04:30:21;;;;;;;;;;;;;;;4.46;100.00;101590.13;5067930;28;20004;-59
2023/11/18 04:32:48;;;;;;;;;;;;;;;4.45;100.00;101592.75;5077462;28;19970;-63
2023/11/18 04:35:17;;;;;;;;;;;;;;;4.45;100.00;101597.94;5070408;28;20019;-61
2023/11/18 04:37:45;;;;;;;;;;;;;;;4.49;100.00;101610.06;5075976;28;20003;-60
2023/11/18 04:40:13;;;;;;;;;;;;;;;4.53;100.00;101601.28;5067915;28;19996;-62
2023/11/18 04:42:40;;;;;;;;;;;;;;;4.51;100.00;101600.47;5069567;28;20059;-59
2023/11/18 04:45:09;;;;;;;;;;;;;;;4.46;100.00;101607.53;5075843;28;19925;-60
2023/11/18 04:47:37;;;;;;;;;;;;;;;4.39;100.00;101608.50;5071446;28;19925;-60
2023/11/18 04:50:05;;;;;;;;;;;;;;;4.41;100.00;101602.34;5067977;28;19970;-61
2023/11/18 04:52:34;;;;;;;;;;;;;;;4.43;100.00;101602.34;5073529;28;19971;-59
2023/11/18 04:55:03;;;;;;;;;;;;;;;4.36;100.00;101609.41;5070047;28;19961;-62
2023/11/18 04:57:30;;;;;;;;;;;;;;;4.35;100.00;101607.69;5068811;28;20066;-58
2023/11/18 04:59:57;;;;;;;;;;;;;;;4.34;100.00;101616.41;5077271;28;20007;-60
2023/11/18 05:02:23;;;;;;;;;;;;;;;4.26;100.00;101610.44;5067289;28;19946;-60
2023/11/18 05:04:51;;;;;;;;;;;;;;;4.28;100.00;101622.59;5070263;28;20386;-60
2023/11/18 05:07:18;;;;;;;;;;;;;;;4.30;100.00;101620.81;5068135;28;19967;-57
2023/11/18 05:09:45;;;;;;;;;;;;;;;4.29;100.00;101615.63;5080383;28;20014;-60
2023/11/18 05:12:12;;;;;;;;;;;;;;;4.22;100.00;101614.84;5078257;28;19929;-60
2023/11/18 05:14:39;;;;;;;;;;;;;;;4.19;100.00;101617.53;5075018;28;20402;-62
2023/11/18 05:17:07;;;;;;;;;;;;;;;4.18;100.00;101613.19;5072995;28;20018;-59
2023/11/18 05:19:34;;;;;;;;;;;;;;;4.19;100.00;101621.88;5079641;28;19929;-60
2023/11/18 05:22:01;;;;;;;;;;;;;;;4.24;100.00;101614.84;5076417;28;20404;-59
2023/11/18 05:24:28;;;;;;;;;;;;;;;4.25;100.00;101619.16;5075596;28;19936;-58
2023/11/18 05:26:55;;;;;;;;;;;;;;;4.26;100.00;101616.53;5081749;28;20320;-60
2023/11/18 05:29:23;;;;;;;;;;;;;;;4.22;100.00;101614.00;5071934;28;20405;-60
2023/11/18 05:31:51;;;;;;;;;;;;;;;4.23;100.00;101613.09;5074137;28;19931;-60
2023/11/18 05:34:20;;;;;;;;;;;;;;;4.26;100.00;101611.31;5080100;28;19928;-59
2023/11/18 05:36:48;;;;;;;;;;;;;;;4.28;100.00;101611.31;5076260;28;21416;-55
2023/11/18 05:39:15;;;;;;;;;;;;;;;4.22;100.00;101620.06;5065817;28;19924;-61
2023/11/18 05:41:45;;;;;;;;;;;;;;;4.25;100.00;101612.19;5081795;28;20024;-60
2023/11/18 05:44:19;;;;;;;;;;;;;;;4.27;100.00;101620.00;5081731;28;20039;-60
2023/11/18 05:46:53;;;;;;;;;;;;;;;4.27;100.00;101620.00;5079835;28;19954;-61
2023/11/18 05:49:24;;;;;;;;;;;;;;;4.28;100.00;101622.59;5078710;28;19928;-60
2023/11/18 05:51:51;;;;;;;;;;;;;;;4.30;100.00;101626.00;5075248;28;19940;-60
2023/11/18 05:54:18;;;;;;;;;;;;;;;4.31;100.00;101616.44;5074039;28;20328;-60
2023/11/18 05:56:45;;;;;;;;;;;;;;;4.27;100.00;101623.44;5066793;28;20015;-58
2023/11/18 05:59:13;;;;;;;;;;;;;;;4.09;100.00;101617.69;5072180;28;19978;-57
2023/11/18 06:01:41;;;;;;;;;;;;;;;4.11;100.00;101621.16;5068414;28;19924;-59
2023/11/18 06:04:08;;;;;;;;;;;;;;;4.14;100.00;101615.88;5080410;28;20424;-59
2023/11/18 06:06:37;;;;;;;;;;;;;;;4.15;100.00;101628.03;5076314;28;20012;-60
2023/11/18 06:09:08;;;;;;;;;;;;;;;4.12;100.00;101623.72;5071556;28;19970;-60
2023/11/18 06:11:41;;;;;;;;;;;;;;;4.10;100.00;101629.81;5069342;28;19971;-60
2023/11/18 06:14:08;;;;;;;;;;;;;;;4.00;100.00;101629.13;5079752;28;19955;-60
2023/11/18 06:16:36;;;;;;;;;;;;;;;3.99;100.00;101627.41;5075038;28;19968;-58
2023/11/18 06:19:06;;;;;;;;;;;;;;;3.98;100.00;101630.91;5078620;28;19974;-60
2023/11/18 06:21:33;;;;;;;;;;;;;;;3.98;100.00;101631.75;5073328;28;20393;-59
2023/11/18 06:24:00;;;;;;;;;;;;;;;3.90;100.00;101630.16;5088604;28;20134;-60
2023/11/18 06:26:27;;;;;;;;;;;;;;;3.86;100.00;101631.94;5076643;28;19929;-60
2023/11/18 06:28:54;;;;;;;;;;;;;;;3.82;100.00;101630.25;5086199;28;19970;-60
2023/11/18 06:31:23;;;;;;;;;;;;;;;3.77;100.00;101632.94;5078475;28;20367;-60
2023/11/18 06:33:50;;;;;;;;;;;;;;;3.69;100.00;101626.09;5077577;28;19956;-53
2023/11/18 06:36:18;;;;;;;;;;;;;;;3.66;100.00;101623.56;5078573;28;19924;-59
2023/11/18 06:38:45;;;;;;;;;;;;;;;3.61;100.00;101634.06;5073235;28;19986;-58
2023/11/18 06:41:13;;;;;;;;;;;;;;;3.59;100.00;101640.16;5073885;28;19971;-61
2023/11/18 06:43:51;;;;;;;;;;;;;;;3.53;100.00;101647.16;5078129;28;19935;-59
2023/11/18 06:46:22;;;;;;;;;;;;;;;3.57;100.00;101644.53;5079010;28;19966;-59
2023/11/18 06:48:49;;;;;;;;;;;;;;;3.63;100.00;101649.63;5077089;28;20306;-60
2023/11/18 06:51:16;;;;;;;;;;;;;;;3.65;100.00;101656.56;5081333;28;19984;-58
2023/11/18 06:53:44;;;;;;;;;;;;;;;3.68;100.00;101663.44;5072191;28;19960;-60
2023/11/18 06:56:11;;;;;;;;;;;;;;;3.64;100.00;101669.59;5086922;28;20022;-60
2023/11/18 06:58:39;;;;;;;;;;;;;;;3.62;100.00;101664.41;5075848;28;19925;-60
2023/11/18 07:01:06;;;;;;;;;;;;;;;3.60;100.00;101671.34;5076295;28;19959;-56
2023/11/18 07:03:33;;;;;;;;;;;;;;;3.67;100.00;101662.59;5074297;28;20050;-55
2023/11/18 07:06:00;;;;;;;;;;;;;;;3.68;100.00;101660.84;5073129;28;20011;-58
2023/11/18 07:08:28;;;;;;;;;;;;;;;3.76;100.00;101665.06;5065813;28;20465;-58
2023/11/18 07:10:56;;;;;;;;;;;;;;;3.84;100.00;101669.31;5078294;28;19928;-58
2023/11/18 07:13:23;;;;;;;;;;;;;;;3.87;100.00;101667.50;5076511;28;20370;-60
2023/11/18 07:15:50;;;;;;;;;;;;;;;3.92;100.00;101680.50;5066162;28;19975;-60
2023/11/18 07:18:17;;;;;;;;;;;;;;;3.89;100.00;101677.94;5072615;28;19912;-59
2023/11/18 07:20:45;;;;;;;;;;;;;;;3.80;100.00;101678.91;5078018;28;19943;-59
2023/11/18 07:23:12;;;;;;;;;;;;;;;3.86;100.00;101681.44;5075144;28;19978;-61
2023/11/18 07:25:39;;;;;;;;;;;;;;;3.85;100.00;101692.72;5073289;28;19978;-60
2023/11/18 07:28:08;;;;;;;;;;;;;;;3.83;100.00;101688.41;5066978;28;19965;-60
2023/11/18 07:30:36;;;;;;;;;;;;;;;3.78;100.00;101691.09;5074013;28;20019;-59
2023/11/18 07:33:05;;;;;;;;;;;;;;;3.82;100.00;101692.75;5066874;28;19970;-60
2023/11/18 07:35:32;;;;;;;;;;;;;;;3.79;100.00;101698.91;5075990;28;19984;-59
2023/11/18 07:38:00;;;;;;;;;;;;;;;3.81;100.00;101712.75;5065296;28;20310;-59
2023/11/18 07:40:28;;;;;;;;;;;;;;;3.74;100.00;101710.28;5079146;28;19989;-61
2023/11/18 07:43:01;;;;;;;;;;;;;;;3.68;100.00;101715.53;5081423;28;19960;-59
2023/11/18 07:45:28;;;;;;;;;;;;;;;3.75;100.00;101717.19;5068241;28;20053;-61
2023/11/18 07:47:56;;;;;;;;;;;;;;;3.84;100.00;101718.81;5082524;28;19959;-57
2023/11/18 07:50:23;;;;;;;;;;;;;;;3.78;100.00;101718.03;5074839;28;19966;-57
2023/11/18 07:52:50;;;;;;;;;;;;;;;3.81;100.00;101724.91;5064685;28;19930;-59
2023/11/18 07:55:18;;;;;;;;;;;;;;;3.88;100.00;101729.16;5072915;28;19963;-60
2023/11/18 07:57:45;;;;;;;;;;;;;;;3.83;100.00;101730.97;5071787;28;19967;-60
2023/11/18 08:00:15;;;;;;;;;;;;;;;3.87;100.00;101732.63;5072053;28;19960;-59
2023/11/18 08:02:42;;;;;;;;;;;;;;;3.88;100.00;101728.31;5076154;28;19972;-60
2023/11/18 08:05:13;;;;;;;;;;;;;;;3.80;100.00;101731.00;5070460;28;19971;-61
2023/11/18 08:07:40;;;;;;;;;;;;;;;3.80;100.00;101724.06;5070599;28;19967;-59
2023/11/18 08:10:12;;;;;;;;;;;;;;;3.89;100.00;101730.88;5066725;28;19924;-59
2023/11/18 08:12:43;;;;;;;;;;;;;;;3.92;100.00;101733.47;5080582;28;19985;-58
2023/11/18 08:15:10;;;;;;;;;;;;;;;3.99;100.00;101742.03;5067596;28;19963;-60
2023/11/18 08:17:37;;;;;;;;;;;;;;;3.97;100.00;101736.84;5080275;28;19971;-58
2023/11/18 08:20:13;;;;;;;;;;;;;;;3.99;100.00;101748.09;5076386;28;20015;-59
2023/11/18 08:22:43;;;;;;;;;;;;;;;4.03;100.00;101741.13;5077179;28;20018;-58
2023/11/18 08:25:12;;;;;;;;;;;;;;;4.01;100.00;101740.28;5069093;28;19928;-58
2023/11/18 08:27:40;;;;;;;;;;;;;;;3.99;100.00;101742.91;5076247;28;19939;-58
2023/11/18 08:30:11;;;;;;;;;;;;;;;4.01;100.00;101729.88;5083388;28;19971;-61
2023/11/18 08:32:39;;;;;;;;;;;;;;;4.11;100.00;101738.41;5080343;28;19987;-58
2023/11/18 08:35:09;;;;;;;;;;;;;;;4.16;100.00;101749.63;5073349;28;19971;-60
2023/11/18 08:37:37;;;;;;;;;;;;;;;4.23;100.00;101746.03;5077373;28;19960;-59
2023/11/18 08:40:06;;;;;;;;;;;;;;;4.26;100.00;101741.63;5073043;28;19971;-59
2023/11/18 08:42:34;;;;;;;;;;;;;;;4.22;100.00;101741.72;5080596;28;20019;-59
2023/11/18 08:45:01;;;;;;;;;;;;;;;4.38;100.00;101732.78;5090230;28;20457;-60
2023/11/18 08:47:31;;;;;;;;;;;;;;;4.55;100.00;101735.13;5081085;28;20023;-60
2023/11/18 08:50:11;;;;;;;;;;;;;;;4.66;100.00;101729.72;5080292;28;19924;-56
2023/11/18 08:52:43;;;;;;;;;;;;;;;4.70;100.00;101724.44;5077782;28;19932;-55
2023/11/18 08:55:20;;;;;;;;;;;;;;;4.69;100.00;101732.28;5052925;28;20126;-57
2023/11/18 08:57:52;;;;;;;;;;;;;;;4.70;100.00;101726.19;5078212;28;20216;-59
2023/11/18 09:03:05;;;;;;;;;;;;;;;4.91;100.00;101745.81;5068895;28;19970;-57
2023/11/18 09:05:32;;;;;;;;;;;;;;;4.88;100.00;101748.47;5077518;28;19987;-61
2023/11/18 09:08:02;;;;;;;;;;;;;;;4.96;100.00;101750.06;5080297;28;19925;-58
2023/11/18 09:10:29;;;;;;;;;;;;;;;4.98;100.00;101748.28;5068016;28;19986;-60
2023/11/18 09:12:56;;;;;;;;;;;;;;;5.00;100.00;101751.75;5077506;28;19963;-58
2023/11/18 09:15:24;;;;;;;;;;;;;;;4.88;100.00;101758.91;5078340;28;19964;-61
2023/11/18 09:17:52;;;;;;;;;;;;;;;4.93;100.00;101760.56;5079986;28;20370;-60
2023/11/18 09:20:22;;;;;;;;;;;;;;;4.93;100.00;101765.78;5083736;28;19981;-59
2023/11/18 09:22:49;;;;;;;;;;;;;;;4.95;100.00;101771.81;5077665;28;19924;-58
2023/11/18 09:25:17;;;;;;;;;;;;;;;4.94;100.00;101779.69;5075502;28;19970;-60
2023/11/18 09:27:45;;;;;;;;;;;;;;;4.97;100.00;101770.06;5079792;28;19956;-59
2023/11/18 09:30:14;;;;;;;;;;;;;;;5.06;100.00;101767.28;5095841;22;19964;-57
2023/11/18 09:32:42;;;;;;;;;;;;;;;5.02;100.00;101773.44;5055598;28;19970;-53
2023/11/18 09:35:12;;;;;;;;;;;;;;;4.98;100.00;101773.53;5063684;28;20449;-53
2023/11/18 09:37:42;;;;;;;;;;;;;;;4.93;100.00;101768.38;5048553;28;19928;-52
2023/11/18 09:40:15;;;;;;;;;;;;;;;5.02;100.00;101764.75;5048537;28;19931;-50
2023/11/18 09:42:44;;;;;;;;;;;;;;;5.07;100.00;101757.69;5040930;28;20023;-54
2023/11/18 09:45:14;;;;;;;;;;;;;;;5.01;100.00;101758.69;5028004;28;20049;-50
2023/11/18 09:47:42;;;;;;;;;;;;;;;5.11;100.00;101748.94;5048695;28;20276;-52
2023/11/18 09:50:10;;;;;;;;;;;;;;;5.17;100.00;101755.78;5061773;28;20331;-54
2023/11/18 09:52:41;;;;;;;;;;;;;;;5.04;100.00;101760.34;5054436;28;20501;-52
2023/11/18 09:55:14;;;;;;;;;;;;;;;5.05;100.00;101759.50;5043356;28;19960;-52
2023/11/18 09:57:43;;;;;;;;;;;;;;;5.13;100.00;101772.38;5039902;28;19960;-50
2023/11/18 10:00:20;;;;;;;;;;;;;;;5.16;100.00;101774.94;5066520;28;20012;-56
2023/11/18 10:02:50;;;;;;;;;;;;;;;5.13;100.00;101772.38;5053582;28;19929;-53
2023/11/18 10:05:20;;;;;;;;;;;;;;;5.20;100.00;101776.63;5054439;28;20053;-54
2023/11/18 10:07:48;;;;;;;;;;;;;;;5.20;100.00;101780.09;5043497;28;19939;-57
2023/11/18 10:10:15;;;;;;;;;;;;;;;5.33;100.00;101770.28;5061118;28;19924;-56
2023/11/18 10:12:44;;;;;;;;;;;;;;;5.48;100.00;101769.13;5062865;28;20008;-54
2023/11/18 10:15:13;;;;;;;;;;;;;;;5.63;100.00;101763.59;5048387;28;20014;-57
2023/11/18 10:17:55;;;;;;;;;;;;;;;5.77;100.00;101760.72;5059879;28;20015;-50
2023/11/18 10:20:25;;;;;;;;;;;;;;;5.92;100.00;101760.41;5060581;28;20030;-52
2023/11/18 10:23:21;;;;;;;;;;;;;;;6.03;100.00;101755.81;5061921;28;20035;-54
2023/11/18 10:25:52;;;;;;;;;;;;;;;5.84;100.00;101746.59;5044213;28;20428;-56
2023/11/18 10:28:32;;;;;;;;;;;;;;;5.91;100.00;101756.03;5051594;28;20369;-53
2023/11/18 10:31:06;;;;;;;;;;;;;;;5.99;100.00;101746.31;5053084;28;19986;-52
2023/11/18 10:33:37;;;;;;;;;;;;;;;6.00;100.00;101742.81;5046546;28;19944;-53
2023/11/18 10:36:07;;;;;;;;;;;;;;;6.03;100.00;101744.47;5051050;28;19931;-56
2023/11/18 10:38:43;;;;;;;;;;;;;;;6.00;100.00;101744.56;5062798;28;19956;-57
2023/11/18 10:41:12;;;;;;;;;;;;;;;6.06;100.00;101734.81;5040676;28;20524;-58
2023/11/18 10:43:41;;;;;;;;;;;;;;;6.05;100.00;101740.94;5050150;28;19968;-58
2023/11/18 10:46:15;;;;;;;;;;;;;;;6.00;100.00;101741.97;5048280;28;20004;-54
2023/11/18 10:48:49;;;;;;;;;;;;;;;5.97;100.00;101755.06;5049813;28;20027;-50
2023/11/18 10:51:20;;;;;;;;;;;;;;;6.04;100.00;101746.22;5025115;28;20041;-54
2023/11/18 10:53:53;;;;;;;;;;;;;;;6.05;100.00;101755.78;5047014;28;20015;-55
2023/11/18 10:56:26;;;;;;;;;;;;;;;6.05;100.00;101755.78;5043285;28;19979;-54
2023/11/18 10:59:00;;;;;;;;;;;;;;;6.03;100.00;101757.56;5052271;28;20008;-53
2023/11/18 11:01:33;;;;;;;;;;;;;;;6.04;100.00;101761.91;5045671;28;19940;-56
2023/11/18 11:04:04;;;;;;;;;;;;;;;6.03;100.00;101762.78;5056862;28;19975;-52
2023/11/18 11:06:32;;;;;;;;;;;;;;;6.05;100.00;101761.00;5056059;28;19983;-54
2023/11/18 11:08:59;;;;;;;;;;;;;;;6.14;100.00;101755.56;5054121;28;19985;-54
2023/11/18 11:11:28;;;;;;;;;;;;;;;6.23;100.00;101763.22;5043151;28;20306;-56
2023/11/18 11:13:56;;;;;;;;;;;;;;;6.27;100.00;101762.25;5032697;28;20355;-57
2023/11/18 11:16:31;;;;;;;;;;;;;;;6.32;100.00;101754.28;5047048;28;20407;-56
2023/11/18 11:18:58;;;;;;;;;;;;;;;6.28;100.00;101770.94;5041817;28;20011;-52
2023/11/18 11:21:28;;;;;;;;;;;;;;;6.03;99.05;101768.91;5031980;28;19956;-55
2023/11/18 11:23:57;;;;;;;;;;;;;;;5.90;98.84;101767.41;5051702;28;19987;-54
2023/11/18 11:26:41;;;;;;;;;;;;;;;5.97;100.00;101750.72;5029209;28;19992;-53
2023/11/18 11:29:18;;;;;;;;;;;;;;;6.03;100.00;101753.22;5035858;28;20019;-58
2023/11/18 11:31:48;;;;;;;;;;;;;;;6.04;100.00;101754.06;5039490;28;19967;-57
2023/11/18 11:34:20;;;;;;;;;;;;;;;5.77;100.00;101748.50;5029729;28;20031;-56
2023/11/18 11:36:50;;;;;;;;;;;;;;;5.76;100.00;101741.56;5035024;28;19963;-54
2023/11/18 11:39:25;;;;;;;;;;;;;;;5.50;100.00;101739.47;5052691;28;19925;-55
2023/11/18 11:41:56;;;;;;;;;;;;;;;5.65;100.00;101734.81;5046500;28;19924;-54
2023/11/18 11:44:29;;;;;;;;;;;;;;;5.81;100.00;101744.94;5053779;28;19968;-52
2023/11/18 11:46:59;;;;;;;;;;;;;;;5.85;100.00;101750.94;5053481;28;19960;-52
2023/11/18 11:49:29;;;;;;;;;;;;;;;5.74;100.00;101745.09;5023316;28;20427;-57
2023/11/18 11:52:03;;;;;;;;;;;;;;;5.75;100.00;101745.03;5030664;28;19939;-54
2023/11/18 11:54:49;;;;;;;;;;;;;;;5.80;100.00;101727.50;5038058;28;20453;-52
2023/11/18 11:57:16;;;;;;;;;;;;;;;6.35;100.00;101730.69;5055288;28;20381;-56
2023/11/18 11:59:44;;;;;;;;;;;;;;;8.60;100.00;101719.94;5050140;28;20027;-53
2023/11/18 12:02:17;;;;;;;;;;;;;;;10.71;90.18;101712.91;5040923;28;20327;-53
2023/11/18 12:04:54;;;;;;;;;;;;;;;11.81;83.68;101713.31;5050237;28;19964;-54
2023/11/18 12:07:23;;;;;;;;;;;;;;;11.85;76.30;101707.00;5050601;28;20019;-55
2023/11/18 12:09:53;;;;;;;;;;;;;;;10.77;71.34;101712.66;5034312;28;20299;-52
2023/11/18 12:12:21;;;;;;;;;;;;;;;10.29;72.68;101713.75;5050136;28;19964;-51
2023/11/18 12:14:52;;;;;;;;;;;;;;;9.35;75.39;101719.09;5051483;28;20334;-56
2023/11/18 12:17:22;;;;;;;;;;;;;;;9.08;77.97;101708.66;5046985;28;19963;-56
2023/11/18 12:19:50;;;;;;;;;;;;;;;8.64;79.47;101715.41;5050143;28;20395;-57
2023/11/18 12:22:19;;;;;;;;;;;;;;;8.39;82.16;101704.88;5063477;28;19983;-57
2023/11/18 12:24:53;;;;;;;;;;;;;;;8.91;81.13;101694.38;5046408;28;19936;-50
2023/11/18 12:27:39;;;;;;;;;;;;;;;10.61;77.82;101694.00;5029195;28;20401;-52
2023/11/18 12:30:15;;;;;;;;;;;;;;;11.77;70.12;101690.63;5050701;28;20027;-53
2023/11/18 12:33:10;;;;;;;;;;;;;;;11.74;66.23;101696.03;5050986;28;19972;-57
2023/11/18 12:35:38;;;;;;;;;;;;;;;12.85;62.75;101687.94;5049651;28;20344;-55
2023/11/18 12:38:06;;;;;;;;;;;;;;;15.24;56.74;101682.44;5045760;28;20363;-53
2023/11/18 12:40:46;;;;;;;;;;;;;;;17.74;48.42;101673.75;5049151;28;20347;-55
2023/11/18 12:43:17;;;;;;;;;;;;;;;19.42;43.22;101682.31;5031857;28;20391;-54
2023/11/18 12:45:53;;;;;;;;;;;;;;;21.34;41.48;101694.00;5051637;28;19963;-52
2023/11/18 12:48:26;;;;;;;;;;;;;;;20.54;37.81;101695.47;5056646;28;20070;-54
2023/11/18 12:50:55;;;;;;;;;;;;;;;21.83;36.17;101689.66;5050973;28;20007;-53